Time;durP1;ratioP1;P1;durP2;ratioP2;P2;SDS_P1;SDS_P2;PMS_P1;PMS_P2;Temp;Humidity;BMP_temperature;BMP_pressure;BME280_temperature;BME280_humidity;BME280_pressure;Samples;Min_cycle;Max_cycle;Signal;HPM_P1;HPM_P2
2022/01/20 00:00:17;;;;;;;29.23;5.03;;;;;;;2.27;100.00;102440.59;4987317;28;20015;-60
2022/01/20 00:02:43;;;;;;;23.60;4.90;;;;;;;2.29;100.00;102433.22;4986091;28;20031;-59
2022/01/20 00:08:11;;;;;;;24.92;4.55;;;;;;;2.32;100.00;102417.50;4972083;28;20078;-59
2022/01/20 00:27:07;;;;;;;35.45;6.57;;;;;;;2.64;100.00;102448.16;4966116;28;20045;-60
2022/01/20 00:29:47;;;;;;;26.95;5.93;;;;;;;2.63;100.00;102440.97;4973031;28;20026;-60
2022/01/20 00:32:14;;;;;;;26.35;5.28;;;;;;;2.68;100.00;102430.56;4986201;28;20150;-59
2022/01/20 00:37:26;;;;;;;24.13;4.70;;;;;;;2.78;100.00;102442.28;4967207;28;20042;-59
2022/01/20 00:39:53;;;;;;;31.80;4.63;;;;;;;2.78;100.00;102442.28;4980315;28;20041;-59
2022/01/20 00:42:19;;;;;;;30.42;5.57;;;;;;;2.76;100.00;102447.88;4985158;28;20027;-59
2022/01/20 00:44:46;;;;;;;22.50;5.00;;;;;;;2.74;100.00;102444.47;4986611;28;20057;-59
2022/01/20 00:47:12;;;;;;;21.85;3.88;;;;;;;2.72;100.00;102446.44;4986445;28;20452;-59
2022/01/20 00:49:37;;;;;;;20.25;3.67;;;;;;;2.74;100.00;102443.59;4986855;28;20110;-60
2022/01/20 00:52:04;;;;;;;21.20;3.58;;;;;;;2.79;100.00;102435.91;4986155;28;20439;-60
2022/01/20 00:54:29;;;;;;;24.52;5.13;;;;;;;2.83;100.00;102435.44;4986201;28;20488;-59
2022/01/20 00:56:55;;;;;;;16.77;4.43;;;;;;;2.90;100.00;102440.34;4985596;28;20073;-60
2022/01/20 00:59:20;;;;;;;26.42;4.45;;;;;;;2.95;100.00;102446.19;4986396;28;20088;-60
2022/01/20 01:01:45;;;;;;;23.38;4.72;;;;;;;2.99;100.00;102456.63;4980273;28;20035;-59
2022/01/20 01:04:10;;;;;;;23.10;4.53;;;;;;;3.04;100.00;102440.78;4977488;28;20046;-59
2022/01/20 01:09:07;;;;;;;29.95;4.55;;;;;;;3.07;100.00;102451.31;4965151;28;20051;-60
2022/01/20 01:11:34;;;;;;;23.63;3.88;;;;;;;3.08;100.00;102452.19;4965823;28;20037;-60
2022/01/20 01:14:01;;;;;;;23.90;4.65;;;;;;;3.09;100.00;102464.75;4972744;28;20026;-59
2022/01/20 01:16:40;;;;;;;21.95;3.65;;;;;;;3.07;100.00;102467.63;4986081;28;20038;-59
2022/01/20 01:22:03;;;;;;;25.52;4.47;;;;;;;2.98;100.00;102462.19;4980078;28;20094;-58
2022/01/20 01:24:29;;;;;;;22.02;4.40;;;;;;;2.93;100.00;102468.03;4971720;28;20057;-58
2022/01/20 01:26:54;;;;;;;22.85;3.58;;;;;;;2.88;100.00;102464.88;4965019;28;20070;-58
2022/01/20 01:32:17;;;;;;;23.55;3.97;;;;;;;2.84;100.00;102468.88;4957139;28;20043;-59
2022/01/20 01:34:48;;;;;;;22.45;4.18;;;;;;;2.88;100.00;102459.44;4966791;28;20082;-58
2022/01/20 01:40:03;;;;;;;22.42;4.90;;;;;;;2.95;100.00;102452.47;4967185;28;20034;-58
2022/01/20 01:42:35;;;;;;;20.17;3.45;;;;;;;2.96;100.00;102454.19;4965899;28;20035;-58
2022/01/20 01:45:33;;;;;;;23.17;4.97;;;;;;;2.95;100.00;102452.47;4966912;28;20034;-58
2022/01/20 01:47:59;;;;;;;18.73;3.35;;;;;;;2.92;99.77;102460.03;4970215;28;20026;-59
2022/01/20 01:50:25;;;;;;;18.13;4.00;;;;;;;2.86;100.00;102446.03;4985080;28;20041;-59
2022/01/20 01:52:54;;;;;;;20.73;3.50;;;;;;;2.85;100.00;102447.03;4971934;28;20042;-58
2022/01/20 01:55:20;;;;;;;17.35;3.42;;;;;;;2.82;100.00;102452.72;4965796;28;20101;-58
2022/01/20 01:57:46;;;;;;;16.95;3.00;;;;;;;2.81;100.00;102461.03;4978809;28;20042;-58
2022/01/20 02:00:12;;;;;;;17.05;3.40;;;;;;;2.80;100.00;102460.16;4965764;28;20030;-58
2022/01/20 02:02:39;;;;;;;28.15;3.75;;;;;;;2.78;100.00;102462.13;4973938;28;20053;-59
2022/01/20 02:05:06;;;;;;;19.80;3.90;;;;;;;2.77;100.00;102454.16;4982558;28;20500;-59
2022/01/20 02:20:52;;;;;;;17.98;3.75;;;;;;;2.81;100.00;102464.59;4966747;28;20065;-59
2022/01/20 02:23:18;;;;;;;19.85;3.60;;;;;;;2.93;100.00;102467.16;4982741;28;20084;-58
2022/01/20 02:25:45;;;;;;;19.13;3.10;;;;;;;3.02;100.00;102478.03;4981598;28;20041;-58
2022/01/20 02:28:11;;;;;;;21.52;3.20;;;;;;;3.09;99.82;102471.06;4973236;28;20147;-58
2022/01/20 02:30:39;;;;;;;18.38;3.80;;;;;;;3.15;99.74;102466.06;4971559;28;20118;-58
2022/01/20 02:33:10;;;;;;;20.48;4.88;;;;;;;3.18;99.64;102469.31;4984265;28;20081;-59
2022/01/20 02:35:39;;;;;;;23.77;3.45;;;;;;;3.24;98.77;102465.19;4983897;28;20038;-58
2022/01/20 02:38:18;;;;;;;20.88;3.42;;;;;;;3.27;98.97;102454.91;4984552;28;20389;-58
2022/01/20 02:45:57;;;;;;;25.90;4.22;;;;;;;3.31;97.88;102453.63;4984701;28;20044;-58
2022/01/20 02:48:24;;;;;;;17.73;4.32;;;;;;;3.29;97.58;102454.75;4984160;28;20039;-58
2022/01/20 02:50:50;;;;;;;17.50;3.35;;;;;;;3.23;97.59;102450.75;4978871;28;20422;-58
2022/01/20 02:53:15;;;;;;;18.13;2.75;;;;;;;3.18;97.75;102442.19;4965128;28;20037;-58
2022/01/20 02:55:40;;;;;;;17.95;3.05;;;;;;;3.09;98.02;102452.06;4963883;28;20429;-58
2022/01/20 02:58:07;;;;;;;12.73;2.85;;;;;;;3.07;98.47;102455.91;4967810;28;20486;-59
2022/01/20 03:00:34;;;;;;;22.40;2.90;;;;;;;3.05;98.71;102458.75;4982941;28;20022;-59
2022/01/20 03:03:00;;;;;;;25.50;4.65;;;;;;;3.03;98.35;102439.03;4980502;28;20034;-59
2022/01/20 03:05:25;;;;;;;16.98;3.15;;;;;;;3.01;98.29;102446.47;4967010;28;20030;-58
2022/01/20 03:07:50;;;;;;;14.15;2.78;;;;;;;2.96;98.45;102453.31;4965354;28;20050;-59
2022/01/20 03:10:17;;;;;;;12.73;2.50;;;;;;;2.94;98.99;102442.63;4973404;28;20105;-58
2022/01/20 03:12:42;;;;;;;16.30;2.75;;;;;;;2.94;99.11;102447.16;4982717;28;20367;-59
2022/01/20 03:15:08;;;;;;;12.43;2.63;;;;;;;2.99;99.56;102450.31;4977634;28;20092;-58
2022/01/20 03:17:33;;;;;;;17.05;2.90;;;;;;;3.01;99.25;102432.06;4963369;28;20035;-59
2022/01/20 03:19:59;;;;;;;19.02;2.85;;;;;;;3.03;99.02;102432.75;4965455;28;20031;-59
2022/01/20 03:22:24;;;;;;;15.73;3.72;;;;;;;3.00;99.53;102427.63;4965078;28;20102;-59
2022/01/20 03:24:50;;;;;;;18.08;2.90;;;;;;;2.97;99.48;102428.75;4968545;28;20109;-58
2022/01/20 03:27:15;;;;;;;21.83;2.88;;;;;;;2.98;99.76;102433.19;4963444;28;20035;-58
2022/01/20 03:29:40;;;;;;;15.85;2.80;;;;;;;3.02;100.00;102431.91;4965085;28;20031;-59
2022/01/20 03:32:06;;;;;;;14.65;3.05;;;;;;;3.04;100.00;102429.91;4964969;28;20031;-58
2022/01/20 03:34:31;;;;;;;16.73;3.47;;;;;;;3.07;99.46;102429.63;4966208;28;20053;-59
2022/01/20 03:36:56;;;;;;;16.60;2.75;;;;;;;3.13;99.36;102428.19;4964946;28;20065;-59
2022/01/20 03:39:22;;;;;;;14.63;3.30;;;;;;;3.07;99.30;102424.19;4974995;28;20030;-58
2022/01/20 03:41:47;;;;;;;12.70;2.35;;;;;;;3.07;99.33;102431.47;4982938;28;20022;-59
2022/01/20 03:44:12;;;;;;;19.52;3.17;;;;;;;3.06;99.00;102427.06;4971148;28;20120;-59
2022/01/20 03:46:38;;;;;;;18.30;2.78;;;;;;;3.13;98.11;102423.59;4964781;28;20030;-58
2022/01/20 03:49:24;;;;;;;19.67;2.75;;;;;;;3.19;97.07;102432.19;4970007;28;20023;-59
2022/01/20 03:51:50;;;;;;;13.40;2.65;;;;;;;3.20;97.03;102439.34;4964774;28;20023;-59
2022/01/20 03:54:15;;;;;;;19.50;3.45;;;;;;;3.18;96.52;102434.03;4963799;28;20037;-59
2022/01/20 03:56:40;;;;;;;23.95;3.72;;;;;;;3.17;96.69;102440.47;4963404;28;20078;-59
2022/01/20 03:59:05;;;;;;;15.25;3.35;;;;;;;3.13;96.47;102442.59;4964443;28;20492;-58
2022/01/20 04:01:31;;;;;;;22.13;4.53;;;;;;;3.08;96.46;102446.75;4974810;28;20038;-58
2022/01/20 04:03:56;;;;;;;20.45;3.35;;;;;;;3.04;96.28;102450.75;4964891;28;20053;-58
2022/01/20 04:06:23;;;;;;;19.95;3.00;;;;;;;2.97;96.58;102445.03;4977990;28;20041;-59
2022/01/20 04:08:50;;;;;;;21.30;4.05;;;;;;;2.96;96.77;102451.47;4983205;28;20058;-59
2022/01/20 04:11:24;;;;;;;15.35;3.20;;;;;;;2.98;96.42;102454.88;4964465;28;20042;-59
2022/01/20 04:13:50;;;;;;;19.38;3.55;;;;;;;3.02;97.10;102458.19;4969870;28;20153;-58
2022/01/20 04:16:24;;;;;;;14.32;3.58;;;;;;;3.07;96.55;102450.47;4964282;28;20038;-58
2022/01/20 04:18:56;;;;;;;16.88;2.88;;;;;;;3.12;96.55;102470.75;4978503;28;20034;-59
2022/01/20 04:21:28;;;;;;;18.00;3.20;;;;;;;3.14;96.70;102467.91;4983283;28;20088;-59
2022/01/20 04:23:54;;;;;;;22.08;4.90;;;;;;;3.19;96.53;102470.19;4983912;28;20361;-59
2022/01/20 04:26:21;;;;;;;18.65;3.05;;;;;;;3.19;96.61;102476.47;4982391;28;20080;-58
2022/01/20 04:28:48;;;;;;;22.83;2.80;;;;;;;3.20;96.86;102472.78;4980075;28;20031;-59
2022/01/20 04:31:13;;;;;;;18.80;2.90;;;;;;;3.22;97.29;102481.63;4984553;28;20035;-59
2022/01/20 04:33:39;;;;;;;17.05;3.45;;;;;;;3.22;96.75;102478.91;4967665;28;20433;-59
2022/01/20 04:36:08;;;;;;;21.80;4.50;;;;;;;3.24;96.32;102476.03;4967370;28;20070;-59
2022/01/20 04:38:33;;;;;;;19.17;3.08;;;;;;;3.25;95.93;102483.22;4974087;28;20141;-59
2022/01/20 04:40:58;;;;;;;22.85;4.20;;;;;;;3.25;96.65;102481.34;4965562;28;20485;-58
2022/01/20 04:43:25;;;;;;;23.52;4.03;;;;;;;3.25;96.33;102480.50;4967345;28;20129;-58
2022/01/20 04:46:02;;;;;;;13.80;3.00;;;;;;;3.22;96.44;102494.34;4967522;28;20382;-58
2022/01/20 04:48:44;;;;;;;20.53;3.13;;;;;;;3.19;96.31;102484.63;4968330;28;20059;-59
2022/01/20 04:59:21;;;;;;;15.73;3.45;;;;;;;3.15;96.45;102498.66;4967252;28;20602;-58
2022/01/20 05:01:47;;;;;;;17.42;3.20;;;;;;;3.15;96.26;102514.94;4968425;28;20117;-58
2022/01/20 05:04:13;;;;;;;18.48;3.45;;;;;;;3.15;96.69;102512.22;4973964;28;20026;-59
2022/01/20 05:06:41;;;;;;;18.25;3.50;;;;;;;3.16;96.70;102513.94;4985488;28;20479;-58
2022/01/20 05:09:07;;;;;;;18.95;3.65;;;;;;;3.18;96.42;102515.47;4986063;28;20097;-59
2022/01/20 05:11:35;;;;;;;16.48;2.80;;;;;;;3.17;96.68;102513.78;4985521;28;20042;-59
2022/01/20 05:14:00;;;;;;;;;;;;;;;3.23;96.87;102512.34;4982446;28;20022;-58
2022/01/20 05:16:25;;;;;;;17.50;2.63;;;;;;;3.19;96.98;102519.91;4980122;28;20471;-59
2022/01/20 05:18:51;;;;;;;15.52;2.72;;;;;;;3.21;96.67;102527.94;4986457;28;20030;-58
2022/01/20 05:21:16;;;;;;;16.38;2.65;;;;;;;3.22;96.97;102524.22;4985600;28;20022;-59
2022/01/20 05:23:41;;;;;;;14.88;2.55;;;;;;;3.22;96.63;102532.34;4981236;28;20081;-58
2022/01/20 05:26:07;;;;;;;16.73;3.22;;;;;;;3.24;97.00;102533.06;4984649;28;20038;-59
2022/01/20 05:28:32;;;;;;;16.83;3.63;;;;;;;3.25;96.69;102548.38;4985829;28;20030;-59
2022/01/20 05:30:59;;;;;;;18.48;2.70;;;;;;;3.26;97.11;102547.38;4986272;28;20034;-58
2022/01/20 05:33:25;;;;;;;19.25;2.63;;;;;;;3.26;97.63;102553.66;4968121;28;20027;-58
2022/01/20 05:35:50;;;;;;;18.00;3.92;;;;;;;3.26;98.36;102555.53;4967908;28;20027;-58
2022/01/20 05:38:15;;;;;;;15.02;2.60;;;;;;;3.25;98.53;102562.81;4966359;28;20353;-58
2022/01/20 05:40:41;;;;;;;13.40;2.75;;;;;;;3.25;98.87;102572.81;4964022;28;20022;-58
2022/01/20 05:43:06;;;;;;;18.98;3.33;;;;;;;3.23;99.23;102585.66;4966311;28;20029;-58
2022/01/20 05:45:31;;;;;;;15.38;3.50;;;;;;;3.23;98.87;102596.53;4970166;28;20485;-59
2022/01/20 05:48:15;;;;;;;14.65;2.58;;;;;;;3.09;98.13;102605.91;4986305;28;20053;-58
2022/01/20 05:50:41;;;;;;;20.73;2.92;;;;;;;2.91;98.27;102594.88;4984106;28;20085;-58
2022/01/20 05:53:07;;;;;;;12.07;2.35;;;;;;;2.81;98.31;102591.25;4984920;28;20058;-58
2022/01/20 05:55:32;;;;;;;12.77;2.65;;;;;;;2.76;98.31;102598.94;4984427;28;20158;-59
2022/01/20 05:57:57;;;;;;;15.85;3.17;;;;;;;2.70;98.19;102594.06;4986267;28;20034;-58
2022/01/20 06:00:25;;;;;;;18.42;3.05;;;;;;;2.67;98.77;102594.34;4985064;28;20121;-58
2022/01/20 06:05:36;;;;;;;20.02;3.05;;;;;;;2.66;98.46;102592.63;4971541;28;20081;-59
2022/01/20 06:08:02;;;;;;;22.10;2.90;;;;;;;2.69;98.36;102593.22;4984975;28;20046;-59
2022/01/20 06:10:27;;;;;;;17.58;3.50;;;;;;;2.72;98.62;102592.94;4984503;28;20092;-58
2022/01/20 06:12:53;;;;;;;20.75;3.78;;;;;;;2.76;98.20;102598.94;4984023;28;20018;-58
2022/01/20 06:15:18;;;;;;;17.90;3.10;;;;;;;2.78;98.40;102608.66;4972453;28;20054;-58
2022/01/20 06:17:43;;;;;;;20.05;3.40;;;;;;;2.80;98.13;102603.97;4978040;28;20097;-58
2022/01/20 06:20:09;;;;;;;15.90;3.33;;;;;;;2.85;97.28;102607.13;4983606;28;20026;-58
2022/01/20 06:22:35;;;;;;;17.20;3.28;;;;;;;2.86;96.42;102610.69;4981984;28;20058;-59
2022/01/20 06:25:02;;;;;;;21.45;3.72;;;;;;;2.91;96.23;102623.88;4978435;28;21039;-59
2022/01/20 06:27:27;;;;;;;17.60;3.40;;;;;;;2.91;95.80;102627.44;4978571;28;20034;-58
2022/01/20 06:29:53;;;;;;;21.50;3.67;;;;;;;2.92;95.33;102631.84;4984630;28;20450;-58
2022/01/20 06:32:18;;;;;;;14.93;3.00;;;;;;;2.94;93.81;102627.16;4971379;28;20716;-58
2022/01/20 06:34:43;;;;;;;18.48;4.95;;;;;;;2.96;94.15;102627.03;4965558;28;20031;-58
2022/01/20 06:37:08;;;;;;;26.45;4.55;;;;;;;2.94;93.92;102638.03;4965584;28;20489;-59
2022/01/20 06:39:34;;;;;;;16.80;3.30;;;;;;;2.92;93.68;102637.28;4965737;28;20062;-59
2022/01/20 06:41:59;;;;;;;19.75;3.50;;;;;;;2.93;93.78;102646.28;4964561;28;20069;-58
2022/01/20 06:44:25;;;;;;;20.52;3.05;;;;;;;2.94;92.38;102648.88;4965058;28;20407;-59
2022/01/20 06:46:51;;;;;;;21.17;3.78;;;;;;;2.90;91.95;102646.56;4965595;28;20038;-58
2022/01/20 06:49:18;;;;;;;19.65;3.47;;;;;;;2.89;92.39;102643.00;4965329;28;20402;-58
2022/01/20 06:51:44;;;;;;;16.60;3.60;;;;;;;2.88;90.92;102648.53;4971096;28;20063;-59
2022/01/20 06:54:10;;;;;;;27.15;3.67;;;;;;;2.86;89.86;102648.69;4966625;28;20030;-58
2022/01/20 06:56:35;;;;;;;26.13;4.22;;;;;;;2.85;90.36;102660.56;4972695;28;20025;-59
2022/01/20 06:59:01;;;;;;;12.90;3.35;;;;;;;2.84;90.73;102675.13;4984505;28;20022;-59
2022/01/20 07:01:26;;;;;;;20.00;3.85;;;;;;;2.82;89.43;102677.09;4983071;28;20034;-58
2022/01/20 07:03:51;;;;;;;20.80;4.28;;;;;;;2.81;88.68;102678.09;4984523;28;20138;-58
2022/01/20 07:06:16;;;;;;;19.67;3.65;;;;;;;2.82;88.85;102679.81;4984154;28;20094;-59
2022/01/20 07:08:42;;;;;;;18.13;4.95;;;;;;;2.81;88.24;102681.66;4983958;28;20433;-58
2022/01/20 07:11:07;;;;;;;19.27;4.18;;;;;;;2.82;87.54;102677.94;4982778;28;20027;-59
2022/01/20 07:13:35;;;;;;;14.68;3.45;;;;;;;2.84;85.90;102677.84;4984699;28;20037;-59
2022/01/20 07:16:00;;;;;;;19.90;3.30;;;;;;;2.83;86.68;102676.09;4984738;28;20117;-59
2022/01/20 07:18:25;;;;;;;19.30;3.58;;;;;;;2.80;86.67;102674.53;4984260;28;20113;-59
2022/01/20 07:20:50;;;;;;;11.70;3.22;;;;;;;2.78;86.15;102675.63;4983135;28;20105;-59
2022/01/20 07:23:16;;;;;;;14.52;3.17;;;;;;;2.78;85.29;102700.91;4982452;28;20037;-59
2022/01/20 07:25:41;;;;;;;18.27;3.25;;;;;;;2.77;84.46;102704.63;4982577;28;20451;-58
2022/01/20 07:28:06;;;;;;;15.82;3.50;;;;;;;2.79;84.17;102699.09;4983560;28;20122;-59
2022/01/20 07:30:32;;;;;;;22.98;3.75;;;;;;;2.79;83.27;102699.94;4982603;28;20034;-59
2022/01/20 07:33:01;;;;;;;22.67;4.75;;;;;;;2.80;83.47;102708.94;4984125;28;20105;-59
2022/01/20 07:35:27;;;;;;;17.63;3.65;;;;;;;2.78;83.75;102710.91;4984014;28;20374;-59
2022/01/20 07:37:52;;;;;;;14.30;3.00;;;;;;;2.76;82.12;102707.47;4984238;28;20037;-59
2022/01/20 07:40:18;;;;;;;20.08;3.83;;;;;;;2.81;81.75;102722.34;4982610;28;20030;-59
2022/01/20 07:42:43;;;;;;;16.80;2.92;;;;;;;2.79;82.34;102718.06;4983418;28;20079;-59
2022/01/20 07:45:09;;;;;;;14.77;3.17;;;;;;;2.78;81.95;102716.31;4983840;28;20150;-59
2022/01/20 07:47:35;;;;;;;21.85;3.47;;;;;;;2.77;82.36;102712.75;4983560;28;20031;-59
2022/01/20 07:50:00;;;;;;;14.88;3.38;;;;;;;2.77;81.73;102715.47;4984448;28;20026;-59
2022/01/20 07:52:26;;;;;;;20.10;3.60;;;;;;;2.79;81.88;102726.22;4983515;28;20552;-59
2022/01/20 07:54:51;;;;;;;18.77;3.75;;;;;;;2.80;80.58;102723.34;4983118;28;20085;-59
2022/01/20 07:57:16;;;;;;;18.77;5.07;;;;;;;2.80;81.96;102736.06;4983217;28;20109;-59
2022/01/20 07:59:41;;;;;;;17.80;3.42;;;;;;;2.81;81.53;102732.34;4984284;28;20030;-59
2022/01/20 08:02:08;;;;;;;21.23;4.35;;;;;;;2.89;80.09;102731.66;4983475;28;20465;-59
2022/01/20 08:04:33;;;;;;;17.15;3.50;;;;;;;2.88;79.11;102733.53;4985853;28;20504;-60
2022/01/20 08:06:58;;;;;;;15.57;3.50;;;;;;;2.90;79.31;102742.41;4987967;28;20034;-59
2022/01/20 08:09:24;;;;;;;22.75;3.70;;;;;;;2.94;78.87;102748.41;4987427;28;20042;-59
2022/01/20 08:11:49;;;;;;;12.23;3.85;;;;;;;2.94;79.66;102753.84;4985789;28;20034;-59
2022/01/20 08:14:15;;;;;;;20.42;3.13;;;;;;;2.95;79.95;102752.88;4987429;28;20133;-58
2022/01/20 08:16:41;;;;;;;18.77;3.63;;;;;;;2.97;79.02;102751.72;4987477;28;20026;-59
2022/01/20 08:19:06;;;;;;;16.58;3.33;;;;;;;2.97;79.41;102757.16;4987356;28;20031;-59
2022/01/20 08:21:31;;;;;;;15.82;3.15;;;;;;;2.99;78.96;102768.75;4985441;28;20042;-59
2022/01/20 08:23:56;;;;;;;14.57;4.65;;;;;;;2.99;80.12;102774.19;4986920;28;20320;-59
2022/01/20 08:26:22;;;;;;;16.20;3.60;;;;;;;3.00;79.96;102769.63;4984748;28;20099;-59
2022/01/20 08:28:47;;;;;;;15.65;2.88;;;;;;;3.00;80.21;102772.34;4987118;28;20026;-59
2022/01/20 08:31:13;;;;;;;17.45;3.58;;;;;;;3.01;79.84;102779.47;4986177;28;20406;-59
2022/01/20 08:33:38;;;;;;;14.63;3.08;;;;;;;3.03;78.87;102786.47;4986534;28;20356;-59
2022/01/20 08:36:04;;;;;;;17.38;3.78;;;;;;;3.07;79.76;102787.06;4986284;28;20456;-59
2022/01/20 08:38:29;;;;;;;17.55;3.47;;;;;;;3.08;79.57;102786.94;4987211;28;20034;-59
2022/01/20 08:40:55;;;;;;;17.35;3.20;;;;;;;3.10;80.60;102781.38;4985169;28;20023;-59
2022/01/20 08:43:20;;;;;;;17.00;3.30;;;;;;;3.13;80.57;102784.69;4985847;28;20731;-59
2022/01/20 08:45:47;;;;;;;16.48;3.35;;;;;;;3.14;80.90;102790.97;4986399;28;20083;-59
2022/01/20 08:48:13;;;;;;;12.75;3.25;;;;;;;3.18;80.80;102786.13;4986708;28;20037;-59
2022/01/20 08:50:39;;;;;;;18.23;3.70;;;;;;;3.21;81.87;102802.16;4986203;28;20045;-59
2022/01/20 08:53:05;;;;;;;12.52;3.03;;;;;;;3.23;82.00;102803.72;4985907;28;20382;-60
2022/01/20 08:55:30;;;;;;;19.90;4.18;;;;;;;3.23;82.94;102814.59;4985333;28;20034;-59
2022/01/20 08:57:57;;;;;;;15.15;2.88;;;;;;;3.22;82.18;102812.03;4986395;28;20033;-59
2022/01/20 09:00:26;;;;;;;21.20;3.50;;;;;;;3.24;83.11;102815.47;4986326;28;20113;-59
2022/01/20 09:02:52;;;;;;;17.23;3.50;;;;;;;3.25;83.08;102819.91;4986434;28;20026;-59
2022/01/20 09:05:17;;;;;;;17.67;3.58;;;;;;;3.23;83.77;102828.19;4985705;28;20118;-59
2022/01/20 09:07:42;;;;;;;18.42;3.67;;;;;;;3.23;83.50;102819.16;4985666;28;20097;-59
2022/01/20 09:10:08;;;;;;;20.25;2.97;;;;;;;3.26;83.91;102819.78;4984479;28;20093;-59
2022/01/20 09:17:46;;;;;;;22.25;3.55;;;;;;;3.31;83.43;102822.09;4985796;28;20415;-59
2022/01/20 09:20:12;;;;;;;13.43;2.78;;;;;;;3.31;84.54;102825.66;4985407;28;20031;-59
2022/01/20 09:22:37;;;;;;;14.77;2.83;;;;;;;3.35;84.13;102832.56;4984291;28;20026;-59
2022/01/20 09:25:05;;;;;;;14.35;3.03;;;;;;;3.39;83.61;102827.69;4983968;28;20037;-60
2022/01/20 09:27:30;;;;;;;16.77;3.88;;;;;;;3.44;83.05;102830.00;4984988;28;20040;-59
2022/01/20 09:29:55;;;;;;;14.02;3.30;;;;;;;3.41;82.74;102833.88;4984360;28;20034;-59
2022/01/20 09:32:21;;;;;;;16.52;3.38;;;;;;;3.37;82.60;102827.84;4982927;28;20050;-59
2022/01/20 09:34:47;;;;;;;14.80;3.28;;;;;;;3.33;82.58;102822.81;4992686;28;20405;-58
2022/01/20 09:37:12;;;;;;;16.38;4.03;;;;;;;3.94;82.84;102816.47;4983897;28;20038;-60
2022/01/20 09:39:39;;;;;;;15.40;3.78;;;;;;;5.47;75.94;102814.72;4982044;28;21061;-60
2022/01/20 09:42:05;;;;;;;17.80;3.17;;;;;;;6.61;71.40;102807.00;4983073;28;20397;-59
2022/01/20 09:44:31;;;;;;;13.00;3.53;;;;;;;7.31;69.00;102798.00;4992428;28;20025;-59
2022/01/20 09:46:56;;;;;;;13.52;3.55;;;;;;;7.83;66.21;102804.22;4984344;28;20354;-59
2022/01/20 09:49:22;;;;;;;21.15;3.63;;;;;;;7.95;65.02;102815.72;4983007;28;20085;-59
2022/01/20 09:51:47;;;;;;;15.15;3.60;;;;;;;8.04;64.79;102817.47;4983559;28;20026;-59
2022/01/20 09:54:12;;;;;;;14.63;3.10;;;;;;;7.45;64.58;102833.78;4991092;28;20061;-59
2022/01/20 09:56:39;;;;;;;15.35;3.60;;;;;;;6.79;67.44;102844.34;4982413;28;20065;-59
2022/01/20 09:59:05;;;;;;;15.35;3.20;;;;;;;6.38;68.23;102836.63;4983741;28;20053;-60
2022/01/20 10:01:39;;;;;;;17.17;4.60;;;;;;;6.62;67.85;102852.41;4991865;28;20366;-59
2022/01/20 10:04:05;;;;;;;17.52;3.70;;;;;;;7.29;66.47;102855.53;4988714;28;20026;-59
2022/01/20 10:06:30;;;;;;;17.73;3.67;;;;;;;8.42;64.26;102857.16;4995445;28;20045;-59
2022/01/20 10:09:01;;;;;;;14.57;3.42;;;;;;;9.25;61.32;102851.56;4993398;28;20054;-59
2022/01/20 10:11:28;;;;;;;14.70;3.55;;;;;;;9.66;58.68;102862.47;4992669;28;20026;-59
2022/01/20 10:13:56;;;;;;;16.50;2.90;;;;;;;10.48;57.39;102863.00;4983915;28;20109;-59
2022/01/20 10:16:21;;;;;;;;;;;;;;;11.31;58.30;102855.84;4981768;28;20089;-59
2022/01/20 10:18:49;;;;;;;16.27;3.10;;;;;;;11.79;52.92;102870.97;4992397;28;20270;-59
2022/01/20 10:21:16;;;;;;;13.55;3.17;;;;;;;12.30;49.58;102861.97;4982603;28;20396;-59
2022/01/20 10:23:44;;;;;;;13.25;3.42;;;;;;;12.57;48.55;102868.63;4982595;28;20027;-59
2022/01/20 10:26:12;;;;;;;11.85;2.58;;;;;;;12.72;48.41;102883.22;4980617;28;20036;-60
2022/01/20 10:28:57;;;;;;;11.30;2.65;;;;;;;12.77;52.21;102889.00;4982136;28;20034;-59
2022/01/20 10:31:51;;;;;;;11.02;3.20;;;;;;;13.33;51.48;102891.06;4980725;28;20038;-59
2022/01/20 10:34:30;;;;;;;14.57;2.83;;;;;;;13.54;46.28;102891.06;4980172;28;20434;-59
2022/01/20 10:37:00;;;;;;;14.45;2.97;;;;;;;13.24;44.99;102890.38;4984315;28;20437;-59
2022/01/20 10:39:40;;;;;;;12.63;3.05;;;;;;;12.29;49.17;102899.69;4983040;28;20109;-60
2022/01/20 10:42:19;;;;;;;16.00;3.17;;;;;;;11.06;52.13;102905.56;4983264;28;20031;-60
2022/01/20 10:44:48;;;;;;;14.43;3.05;;;;;;;9.33;53.12;102900.06;4984334;28;20035;-60
2022/01/20 10:47:20;;;;;;;15.30;2.85;;;;;;;8.09;56.55;102910.03;4983256;28;20034;-60
2022/01/20 10:49:46;;;;;;;19.50;3.30;;;;;;;7.15;58.01;102906.19;4984526;28;20037;-60
2022/01/20 10:52:14;;;;;;;17.63;3.33;;;;;;;6.52;61.68;102916.28;4983423;28;20031;-60
2022/01/20 10:54:42;;;;;;;16.27;2.63;;;;;;;6.09;62.35;102918.69;4982805;28;20026;-60
2022/01/20 10:57:10;;;;;;;14.85;2.88;;;;;;;5.70;64.50;102926.94;4983167;28;20311;-60
2022/01/20 10:59:48;;;;;;;11.38;2.72;;;;;;;5.67;65.84;102907.28;4984316;28;20022;-60
2022/01/20 11:02:13;;;;;;;12.77;3.42;;;;;;;5.66;65.44;102920.06;4983980;28;20054;-60
2022/01/20 11:04:39;;;;;;;16.92;4.07;;;;;;;5.60;66.76;102914.34;4983646;28;20027;-60
2022/01/20 11:07:07;;;;;;;13.73;3.20;;;;;;;5.52;65.28;102938.75;4983168;28;20026;-60
2022/01/20 11:09:36;;;;;;;16.00;2.92;;;;;;;5.40;66.03;102930.75;4982642;28;20061;-60
2022/01/20 11:12:03;;;;;;;12.90;2.63;;;;;;;5.21;66.84;102933.47;4983445;28;20035;-60
2022/01/20 11:14:31;;;;;;;16.75;2.95;;;;;;;5.07;66.36;102926.63;4983635;28;20025;-60
2022/01/20 11:16:58;;;;;;;9.13;3.23;;;;;;;5.12;67.59;102928.88;4983484;28;20026;-60
2022/01/20 11:19:24;;;;;;;15.70;3.70;;;;;;;5.41;67.50;102926.16;4983563;28;20469;-60
2022/01/20 11:21:50;;;;;;;18.20;3.15;;;;;;;7.36;65.74;102914.03;4983506;28;20022;-59
2022/01/20 11:24:23;;;;;;;20.77;3.30;;;;;;;8.89;58.00;102905.88;4982124;28;20046;-60
2022/01/20 11:26:54;;;;;;;16.98;3.10;;;;;;;8.57;56.58;102909.41;4982707;28;20026;-60
2022/01/20 11:29:22;;;;;;;16.17;2.85;;;;;;;8.12;56.92;102907.84;4982055;28;20473;-59
2022/01/20 11:31:49;;;;;;;14.45;2.75;;;;;;;8.12;57.93;102904.25;4982939;28;20392;-59
2022/01/20 11:34:17;;;;;;;15.95;3.25;;;;;;;7.89;57.56;102891.13;4983561;28;20124;-59
2022/01/20 11:36:42;;;;;;;14.55;2.80;;;;;;;7.42;58.63;102893.41;4983051;28;20113;-60
2022/01/20 11:39:08;;;;;;;14.07;2.90;;;;;;;8.09;57.61;102896.34;4985600;28;20101;-60
2022/01/20 11:41:49;;;;;;;11.15;2.60;;;;;;;8.06;57.09;102881.13;4986880;28;20117;-60
2022/01/20 11:44:18;;;;;;;14.98;2.38;;;;;;;7.51;58.48;102900.66;4987098;28;20026;-60
2022/01/20 11:46:49;;;;;;;11.70;2.45;;;;;;;6.98;57.47;102890.63;4987434;28;20031;-60
2022/01/20 11:49:21;;;;;;;16.02;3.50;;;;;;;6.62;60.86;102889.78;4986869;28;20338;-60
2022/01/20 11:51:58;;;;;;;9.55;2.45;;;;;;;6.49;62.34;102892.91;4987178;28;20027;-59
2022/01/20 11:54:23;;;;;;;15.20;3.03;;;;;;;6.34;60.49;102900.75;4986159;28;20366;-59
2022/01/20 11:56:48;;;;;;;11.67;2.47;;;;;;;6.90;59.86;102893.31;4986498;28;20046;-60
2022/01/20 11:59:15;;;;;;;12.43;2.65;;;;;;;7.24;57.30;102891.53;4987251;28;20037;-59
2022/01/20 12:01:52;;;;;;;14.20;3.05;;;;;;;7.22;57.20;102898.19;4987199;28;20429;-60
2022/01/20 12:04:18;;;;;;;17.80;3.63;;;;;;;7.13;59.58;102899.13;4986716;28;20030;-59
2022/01/20 12:06:47;;;;;;;16.58;2.80;;;;;;;7.38;59.30;102894.72;4986855;28;20026;-59
2022/01/20 12:09:13;;;;;;;;;;;;;;;8.71;57.19;102877.75;4982702;28;20039;-59
2022/01/20 12:11:46;;;;;;;10.77;2.50;;;;;;;10.24;52.43;102875.00;4967660;28;20396;-60
2022/01/20 12:14:13;;;;;;;13.00;3.17;;;;;;;11.25;47.80;102868.44;4974736;28;20023;-59
2022/01/20 12:16:43;;;;;;;11.63;2.75;;;;;;;10.25;46.03;102859.38;4967962;28;20029;-59
2022/01/20 12:19:10;;;;;;;12.30;2.47;;;;;;;8.77;48.63;102864.25;4967790;28;20676;-60
2022/01/20 12:21:38;;;;;;;14.57;1.98;;;;;;;7.82;52.42;102867.31;4971216;28;20110;-60
2022/01/20 12:24:04;;;;;;;8.88;2.30;;;;;;;7.18;54.03;102874.94;4985883;28;20006;-60
2022/01/20 12:26:36;;;;;;;10.48;2.22;;;;;;;6.60;56.30;102872.69;4987238;28;20108;-59
2022/01/20 12:29:09;;;;;;;11.35;2.00;;;;;;;6.30;57.19;102872.03;4985030;28;20026;-59
2022/01/20 12:31:49;;;;;;;13.32;2.45;;;;;;;6.05;58.87;102875.47;4987089;28;20034;-60